sensor_id;sensor_type;location;lat;lon;timestamp;P1;durP1;ratioP1;P2;durP2;ratioP2
51082;SDS011;37131;42.694;23.350;2022-08-11T00:02:25;4.95;;;2.20;;
51082;SDS011;37131;42.694;23.350;2022-08-11T00:04:52;6.10;;;2.17;;
51082;SDS011;37131;42.694;23.350;2022-08-11T00:07:19;4.93;;;2.05;;
51082;SDS011;37131;42.694;23.350;2022-08-11T00:09:45;3.42;;;2.00;;
51082;SDS011;37131;42.694;23.350;2022-08-11T00:12:13;5.63;;;2.40;;
51082;SDS011;37131;42.694;23.350;2022-08-11T00:14:39;9.38;;;2.45;;
51082;SDS011;37131;42.694;23.350;2022-08-11T00:17:10;3.92;;;2.50;;
51082;SDS011;37131;42.694;23.350;2022-08-11T00:19:39;3.83;;;2.33;;
51082;SDS011;37131;42.694;23.350;2022-08-11T00:22:10;4.00;;;2.40;;
51082;SDS011;37131;42.694;23.350;2022-08-11T00:24:44;3.42;;;2.10;;
51082;SDS011;37131;42.694;23.350;2022-08-11T00:27:09;3.67;;;2.22;;
51082;SDS011;37131;42.694;23.350;2022-08-11T00:29:35;3.63;;;2.50;;
51082;SDS011;37131;42.694;23.350;2022-08-11T00:32:02;4.30;;;2.05;;
51082;SDS011;37131;42.694;23.350;2022-08-11T00:34:33;5.30;;;2.25;;
51082;SDS011;37131;42.694;23.350;2022-08-11T00:37:05;4.55;;;2.08;;
51082;SDS011;37131;42.694;23.350;2022-08-11T00:39:41;4.22;;;2.40;;
51082;SDS011;37131;42.694;23.350;2022-08-11T00:45:19;4.35;;;2.03;;
51082;SDS011;37131;42.694;23.350;2022-08-11T00:51:01;2.95;;;2.20;;
51082;SDS011;37131;42.694;23.350;2022-08-11T01:08:23;3.28;;;2.58;;
51082;SDS011;37131;42.694;23.350;2022-08-11T01:20:22;4.28;;;2.30;;
51082;SDS011;37131;42.694;23.350;2022-08-11T01:38:06;4.22;;;2.30;;
51082;SDS011;37131;42.694;23.350;2022-08-11T01:40:39;3.90;;;2.20;;
51082;SDS011;37131;42.694;23.350;2022-08-11T01:43:24;6.60;;;2.30;;
51082;SDS011;37131;42.694;23.350;2022-08-11T01:46:33;4.15;;;2.65;;
51082;SDS011;37131;42.694;23.350;2022-08-11T01:49:24;4.47;;;2.30;;
51082;SDS011;37131;42.694;23.350;2022-08-11T01:54:26;3.47;;;2.30;;
51082;SDS011;37131;42.694;23.350;2022-08-11T01:59:49;4.85;;;2.20;;
51082;SDS011;37131;42.694;23.350;2022-08-11T02:11:21;3.63;;;2.53;;
51082;SDS011;37131;42.694;23.350;2022-08-11T02:28:41;4.18;;;2.50;;
51082;SDS011;37131;42.694;23.350;2022-08-11T02:31:39;3.95;;;2.60;;
51082;SDS011;37131;42.694;23.350;2022-08-11T02:45:04;3.70;;;2.55;;
51082;SDS011;37131;42.694;23.350;2022-08-11T02:50:40;4.78;;;3.00;;
51082;SDS011;37131;42.694;23.350;2022-08-11T02:53:25;4.75;;;2.80;;
51082;SDS011;37131;42.694;23.350;2022-08-11T03:10:27;3.88;;;2.58;;
51082;SDS011;37131;42.694;23.350;2022-08-11T03:13:33;6.72;;;2.90;;
51082;SDS011;37131;42.694;23.350;2022-08-11T03:22:02;6.28;;;3.05;;
51082;SDS011;37131;42.694;23.350;2022-08-11T03:27:59;11.27;;;3.50;;
51082;SDS011;37131;42.694;23.350;2022-08-11T03:30:38;5.57;;;3.13;;
51082;SDS011;37131;42.694;23.350;2022-08-11T03:33:17;5.97;;;2.88;;
51082;SDS011;37131;42.694;23.350;2022-08-11T03:36:08;7.03;;;3.28;;
51082;SDS011;37131;42.694;23.350;2022-08-11T03:38:47;6.10;;;2.83;;
51082;SDS011;37131;42.694;23.350;2022-08-11T04:12:37;13.73;;;3.22;;
51082;SDS011;37131;42.694;23.350;2022-08-11T04:43:02;10.57;;;3.38;;
51082;SDS011;37131;42.694;23.350;2022-08-11T04:48:42;6.57;;;3.20;;
51082;SDS011;37131;42.694;23.350;2022-08-11T04:52:01;7.38;;;3.17;;
51082;SDS011;37131;42.694;23.350;2022-08-11T04:58:21;7.78;;;3.30;;
51082;SDS011;37131;42.694;23.350;2022-08-11T05:12:29;11.43;;;3.75;;
51082;SDS011;37131;42.694;23.350;2022-08-11T05:14:56;5.88;;;3.25;;
51082;SDS011;37131;42.694;23.350;2022-08-11T05:17:52;5.97;;;3.10;;
51082;SDS011;37131;42.694;23.350;2022-08-11T05:20:50;4.93;;;3.00;;
51082;SDS011;37131;42.694;23.350;2022-08-11T05:23:39;6.60;;;3.30;;
51082;SDS011;37131;42.694;23.350;2022-08-11T05:26:25;4.85;;;3.10;;
51082;SDS011;37131;42.694;23.350;2022-08-11T05:29:35;4.80;;;3.03;;
51082;SDS011;37131;42.694;23.350;2022-08-11T05:32:23;7.38;;;3.28;;
51082;SDS011;37131;42.694;23.350;2022-08-11T05:35:26;8.20;;;3.20;;
51082;SDS011;37131;42.694;23.350;2022-08-11T05:37:56;5.80;;;3.17;;
51082;SDS011;37131;42.694;23.350;2022-08-11T05:40:48;6.82;;;3.10;;
51082;SDS011;37131;42.694;23.350;2022-08-11T05:43:38;4.22;;;2.85;;
51082;SDS011;37131;42.694;23.350;2022-08-11T05:46:26;5.45;;;3.05;;
51082;SDS011;37131;42.694;23.350;2022-08-11T05:49:11;6.68;;;3.10;;
51082;SDS011;37131;42.694;23.350;2022-08-11T05:51:57;6.65;;;3.10;;
51082;SDS011;37131;42.694;23.350;2022-08-11T05:54:42;8.07;;;3.63;;
51082;SDS011;37131;42.694;23.350;2022-08-11T05:57:28;5.55;;;2.85;;
51082;SDS011;37131;42.694;23.350;2022-08-11T06:00:00;6.43;;;3.40;;
51082;SDS011;37131;42.694;23.350;2022-08-11T06:02:29;4.22;;;2.80;;
51082;SDS011;37131;42.694;23.350;2022-08-11T06:04:56;8.32;;;3.00;;
51082;SDS011;37131;42.694;23.350;2022-08-11T06:07:26;4.18;;;2.83;;
51082;SDS011;37131;42.694;23.350;2022-08-11T06:09:53;6.35;;;3.38;;
51082;SDS011;37131;42.694;23.350;2022-08-11T06:14:54;5.55;;;3.00;;
51082;SDS011;37131;42.694;23.350;2022-08-11T06:17:27;5.82;;;3.10;;
51082;SDS011;37131;42.694;23.350;2022-08-11T06:19:58;5.20;;;2.65;;
51082;SDS011;37131;42.694;23.350;2022-08-11T06:22:26;7.18;;;2.80;;
51082;SDS011;37131;42.694;23.350;2022-08-11T06:24:53;5.10;;;2.78;;
51082;SDS011;37131;42.694;23.350;2022-08-11T06:27:21;6.50;;;2.67;;
51082;SDS011;37131;42.694;23.350;2022-08-11T06:29:49;8.68;;;3.38;;
51082;SDS011;37131;42.694;23.350;2022-08-11T06:32:16;7.20;;;3.40;;
51082;SDS011;37131;42.694;23.350;2022-08-11T06:43:20;5.00;;;3.05;;
51082;SDS011;37131;42.694;23.350;2022-08-11T06:48:17;5.65;;;3.20;;
51082;SDS011;37131;42.694;23.350;2022-08-11T06:50:47;6.10;;;3.00;;
51082;SDS011;37131;42.694;23.350;2022-08-11T06:53:33;5.40;;;3.08;;
51082;SDS011;37131;42.694;23.350;2022-08-11T06:56:01;5.68;;;3.13;;
51082;SDS011;37131;42.694;23.350;2022-08-11T06:58:46;6.45;;;2.55;;
51082;SDS011;37131;42.694;23.350;2022-08-11T07:04:10;5.82;;;2.50;;
51082;SDS011;37131;42.694;23.350;2022-08-11T07:23:07;3.05;;;1.92;;
51082;SDS011;37131;42.694;23.350;2022-08-11T07:25:52;5.13;;;2.55;;
51082;SDS011;37131;42.694;23.350;2022-08-11T07:28:41;4.50;;;2.15;;
51082;SDS011;37131;42.694;23.350;2022-08-11T07:31:36;5.28;;;1.98;;
51082;SDS011;37131;42.694;23.350;2022-08-11T07:36:45;8.57;;;2.35;;
51082;SDS011;37131;42.694;23.350;2022-08-11T07:39:15;3.92;;;2.08;;
51082;SDS011;37131;42.694;23.350;2022-08-11T07:41:45;3.47;;;2.20;;
51082;SDS011;37131;42.694;23.350;2022-08-11T07:44:11;3.60;;;1.88;;
51082;SDS011;37131;42.694;23.350;2022-08-11T07:46:41;3.38;;;1.88;;
51082;SDS011;37131;42.694;23.350;2022-08-11T07:49:27;5.20;;;2.25;;
51082;SDS011;37131;42.694;23.350;2022-08-11T07:52:15;8.13;;;4.45;;
51082;SDS011;37131;42.694;23.350;2022-08-11T07:54:51;3.75;;;2.00;;
51082;SDS011;37131;42.694;23.350;2022-08-11T07:57:17;4.57;;;2.20;;
51082;SDS011;37131;42.694;23.350;2022-08-11T08:00:02;2.65;;;1.80;;
51082;SDS011;37131;42.694;23.350;2022-08-11T08:02:46;3.70;;;2.00;;
51082;SDS011;37131;42.694;23.350;2022-08-11T08:05:30;19.38;;;8.23;;
51082;SDS011;37131;42.694;23.350;2022-08-11T08:08:14;5.40;;;1.60;;
51082;SDS011;37131;42.694;23.350;2022-08-11T08:10:59;3.75;;;1.80;;
51082;SDS011;37131;42.694;23.350;2022-08-11T08:13:44;2.88;;;2.10;;
51082;SDS011;37131;42.694;23.350;2022-08-11T08:16:29;3.40;;;1.50;;
51082;SDS011;37131;42.694;23.350;2022-08-11T08:19:14;2.40;;;1.38;;
51082;SDS011;37131;42.694;23.350;2022-08-11T08:21:41;3.25;;;1.70;;
51082;SDS011;37131;42.694;23.350;2022-08-11T08:24:08;3.85;;;1.58;;
51082;SDS011;37131;42.694;23.350;2022-08-11T08:26:34;5.22;;;2.08;;
51082;SDS011;37131;42.694;23.350;2022-08-11T08:29:19;3.08;;;1.85;;
51082;SDS011;37131;42.694;23.350;2022-08-11T08:32:15;4.43;;;1.70;;
51082;SDS011;37131;42.694;23.350;2022-08-11T08:34:42;3.22;;;1.73;;
51082;SDS011;37131;42.694;23.350;2022-08-11T08:37:09;7.18;;;1.90;;
51082;SDS011;37131;42.694;23.350;2022-08-11T08:39:34;4.75;;;1.90;;
51082;SDS011;37131;42.694;23.350;2022-08-11T08:42:03;5.82;;;1.92;;
51082;SDS011;37131;42.694;23.350;2022-08-11T08:44:35;4.13;;;2.00;;
51082;SDS011;37131;42.694;23.350;2022-08-11T08:47:05;8.48;;;2.20;;
51082;SDS011;37131;42.694;23.350;2022-08-11T08:49:35;3.72;;;1.92;;
51082;SDS011;37131;42.694;23.350;2022-08-11T08:52:04;3.30;;;1.92;;
51082;SDS011;37131;42.694;23.350;2022-08-11T08:54:34;4.20;;;1.75;;
51082;SDS011;37131;42.694;23.350;2022-08-11T08:57:06;5.32;;;1.90;;
51082;SDS011;37131;42.694;23.350;2022-08-11T08:59:35;3.50;;;1.98;;
51082;SDS011;37131;42.694;23.350;2022-08-11T09:02:04;4.60;;;1.85;;
51082;SDS011;37131;42.694;23.350;2022-08-11T09:04:30;3.50;;;2.10;;
51082;SDS011;37131;42.694;23.350;2022-08-11T09:06:58;5.60;;;2.10;;
51082;SDS011;37131;42.694;23.350;2022-08-11T09:09:27;4.13;;;2.03;;
51082;SDS011;37131;42.694;23.350;2022-08-11T09:11:53;4.60;;;2.13;;
51082;SDS011;37131;42.694;23.350;2022-08-11T09:14:24;5.85;;;2.20;;
51082;SDS011;37131;42.694;23.350;2022-08-11T09:17:12;5.35;;;1.73;;
51082;SDS011;37131;42.694;23.350;2022-08-11T09:19:38;4.18;;;2.10;;
51082;SDS011;37131;42.694;23.350;2022-08-11T09:22:04;3.20;;;2.25;;
51082;SDS011;37131;42.694;23.350;2022-08-11T09:24:49;2.70;;;1.92;;
51082;SDS011;37131;42.694;23.350;2022-08-11T09:27:34;5.43;;;2.38;;
51082;SDS011;37131;42.694;23.350;2022-08-11T09:30:00;3.22;;;1.95;;
51082;SDS011;37131;42.694;23.350;2022-08-11T09:32:26;5.60;;;2.35;;
51082;SDS011;37131;42.694;23.350;2022-08-11T09:34:53;2.60;;;1.80;;
51082;SDS011;37131;42.694;23.350;2022-08-11T09:37:19;3.28;;;1.80;;
51082;SDS011;37131;42.694;23.350;2022-08-11T09:40:05;5.18;;;2.00;;
51082;SDS011;37131;42.694;23.350;2022-08-11T09:42:51;5.57;;;2.45;;
51082;SDS011;37131;42.694;23.350;2022-08-11T09:45:36;3.75;;;1.70;;
51082;SDS011;37131;42.694;23.350;2022-08-11T09:48:02;6.95;;;1.77;;
51082;SDS011;37131;42.694;23.350;2022-08-11T09:50:30;3.67;;;2.28;;
51082;SDS011;37131;42.694;23.350;2022-08-11T09:52:57;4.25;;;1.70;;
51082;SDS011;37131;42.694;23.350;2022-08-11T09:55:23;4.00;;;2.03;;
51082;SDS011;37131;42.694;23.350;2022-08-11T09:57:49;4.13;;;2.28;;
51082;SDS011;37131;42.694;23.350;2022-08-11T10:00:34;4.43;;;2.00;;
51082;SDS011;37131;42.694;23.350;2022-08-11T10:03:23;3.05;;;1.52;;
51082;SDS011;37131;42.694;23.350;2022-08-11T10:05:57;4.43;;;2.00;;
51082;SDS011;37131;42.694;23.350;2022-08-11T10:08:44;3.35;;;1.80;;
51082;SDS011;37131;42.694;23.350;2022-08-11T10:11:13;6.65;;;2.00;;
51082;SDS011;37131;42.694;23.350;2022-08-11T10:13:45;7.38;;;1.88;;
51082;SDS011;37131;42.694;23.350;2022-08-11T10:16:33;3.65;;;1.80;;
51082;SDS011;37131;42.694;23.350;2022-08-11T10:19:01;3.65;;;1.92;;
51082;SDS011;37131;42.694;23.350;2022-08-11T10:21:30;4.50;;;2.20;;
51082;SDS011;37131;42.694;23.350;2022-08-11T10:23:59;13.68;;;2.90;;
51082;SDS011;37131;42.694;23.350;2022-08-11T10:26:44;3.63;;;1.95;;
51082;SDS011;37131;42.694;23.350;2022-08-11T10:29:18;4.05;;;1.90;;
51082;SDS011;37131;42.694;23.350;2022-08-11T10:32:04;4.45;;;2.28;;
51082;SDS011;37131;42.694;23.350;2022-08-11T10:34:48;5.07;;;2.42;;
51082;SDS011;37131;42.694;23.350;2022-08-11T10:37:15;5.22;;;1.73;;
51082;SDS011;37131;42.694;23.350;2022-08-11T10:39:42;4.97;;;2.10;;
51082;SDS011;37131;42.694;23.350;2022-08-11T10:42:09;3.78;;;1.90;;
51082;SDS011;37131;42.694;23.350;2022-08-11T10:44:55;3.10;;;1.63;;
51082;SDS011;37131;42.694;23.350;2022-08-11T10:47:22;2.20;;;1.55;;
51082;SDS011;37131;42.694;23.350;2022-08-11T10:49:59;3.75;;;1.70;;
51082;SDS011;37131;42.694;23.350;2022-08-11T10:52:50;3.72;;;1.80;;
51082;SDS011;37131;42.694;23.350;2022-08-11T10:55:34;5.20;;;2.15;;
51082;SDS011;37131;42.694;23.350;2022-08-11T10:58:20;5.65;;;2.03;;
51082;SDS011;37131;42.694;23.350;2022-08-11T11:01:06;2.88;;;1.88;;
51082;SDS011;37131;42.694;23.350;2022-08-11T11:03:32;4.60;;;1.80;;
51082;SDS011;37131;42.694;23.350;2022-08-11T11:06:48;3.20;;;1.85;;
51082;SDS011;37131;42.694;23.350;2022-08-11T11:09:25;5.68;;;2.08;;
51082;SDS011;37131;42.694;23.350;2022-08-11T11:12:43;5.57;;;1.92;;
51082;SDS011;37131;42.694;23.350;2022-08-11T11:15:08;3.65;;;2.10;;
51082;SDS011;37131;42.694;23.350;2022-08-11T11:17:57;7.50;;;2.30;;
51082;SDS011;37131;42.694;23.350;2022-08-11T11:29:17;2.75;;;1.92;;
51082;SDS011;37131;42.694;23.350;2022-08-11T11:32:15;3.65;;;2.10;;
51082;SDS011;37131;42.694;23.350;2022-08-11T11:37:31;2.88;;;1.98;;
51082;SDS011;37131;42.694;23.350;2022-08-11T11:40:00;4.50;;;1.77;;
51082;SDS011;37131;42.694;23.350;2022-08-11T11:42:34;4.20;;;2.08;;
51082;SDS011;37131;42.694;23.350;2022-08-11T11:45:00;4.72;;;2.00;;
51082;SDS011;37131;42.694;23.350;2022-08-11T11:47:28;2.90;;;1.40;;
51082;SDS011;37131;42.694;23.350;2022-08-11T11:49:55;3.67;;;1.48;;
51082;SDS011;37131;42.694;23.350;2022-08-11T11:52:21;3.97;;;1.38;;
51082;SDS011;37131;42.694;23.350;2022-08-11T11:54:49;1.80;;;1.27;;
51082;SDS011;37131;42.694;23.350;2022-08-11T11:57:18;3.38;;;1.40;;
51082;SDS011;37131;42.694;23.350;2022-08-11T12:00:04;4.18;;;1.63;;
51082;SDS011;37131;42.694;23.350;2022-08-11T12:02:49;7.80;;;1.70;;
51082;SDS011;37131;42.694;23.350;2022-08-11T12:05:16;2.55;;;1.65;;
51082;SDS011;37131;42.694;23.350;2022-08-11T12:07:42;4.32;;;1.80;;
51082;SDS011;37131;42.694;23.350;2022-08-11T12:10:28;5.05;;;1.90;;
51082;SDS011;37131;42.694;23.350;2022-08-11T12:12:55;4.75;;;1.50;;
51082;SDS011;37131;42.694;23.350;2022-08-11T12:15:43;3.38;;;1.83;;
51082;SDS011;37131;42.694;23.350;2022-08-11T12:18:11;3.70;;;1.85;;
51082;SDS011;37131;42.694;23.350;2022-08-11T12:20:36;10.27;;;1.98;;
51082;SDS011;37131;42.694;23.350;2022-08-11T12:23:02;3.53;;;1.85;;
51082;SDS011;37131;42.694;23.350;2022-08-11T12:29:03;2.63;;;1.77;;
51082;SDS011;37131;42.694;23.350;2022-08-11T12:31:33;4.88;;;1.65;;
51082;SDS011;37131;42.694;23.350;2022-08-11T12:34:02;2.58;;;1.48;;
51082;SDS011;37131;42.694;23.350;2022-08-11T12:36:31;4.63;;;2.08;;
51082;SDS011;37131;42.694;23.350;2022-08-11T12:38:59;3.83;;;1.77;;
51082;SDS011;37131;42.694;23.350;2022-08-11T12:41:27;3.72;;;1.52;;
51082;SDS011;37131;42.694;23.350;2022-08-11T12:44:13;2.97;;;1.20;;
51082;SDS011;37131;42.694;23.350;2022-08-11T12:46:58;2.78;;;1.58;;
51082;SDS011;37131;42.694;23.350;2022-08-11T12:49:26;4.55;;;1.42;;
51082;SDS011;37131;42.694;23.350;2022-08-11T12:52:16;2.15;;;1.48;;
51082;SDS011;37131;42.694;23.350;2022-08-11T12:54:47;4.82;;;1.80;;
51082;SDS011;37131;42.694;23.350;2022-08-11T12:57:22;4.28;;;1.52;;
51082;SDS011;37131;42.694;23.350;2022-08-11T13:00:08;5.10;;;1.77;;
51082;SDS011;37131;42.694;23.350;2022-08-11T13:02:53;2.95;;;1.30;;
51082;SDS011;37131;42.694;23.350;2022-08-11T13:05:39;4.75;;;1.50;;
51082;SDS011;37131;42.694;23.350;2022-08-11T13:08:07;5.90;;;1.40;;
51082;SDS011;37131;42.694;23.350;2022-08-11T13:10:33;2.78;;;1.83;;
51082;SDS011;37131;42.694;23.350;2022-08-11T13:13:22;3.67;;;1.75;;
51082;SDS011;37131;42.694;23.350;2022-08-11T13:15:48;3.75;;;1.45;;
51082;SDS011;37131;42.694;23.350;2022-08-11T13:18:16;3.25;;;1.73;;
51082;SDS011;37131;42.694;23.350;2022-08-11T13:20:47;2.40;;;1.50;;
51082;SDS011;37131;42.694;23.350;2022-08-11T13:23:14;2.22;;;1.17;;
51082;SDS011;37131;42.694;23.350;2022-08-11T13:25:40;3.05;;;1.48;;
51082;SDS011;37131;42.694;23.350;2022-08-11T13:28:08;4.05;;;1.60;;
51082;SDS011;37131;42.694;23.350;2022-08-11T13:30:35;3.20;;;1.40;;
51082;SDS011;37131;42.694;23.350;2022-08-11T13:33:19;4.35;;;1.70;;
51082;SDS011;37131;42.694;23.350;2022-08-11T13:35:46;4.68;;;1.60;;
51082;SDS011;37131;42.694;23.350;2022-08-11T13:38:14;4.25;;;1.20;;
51082;SDS011;37131;42.694;23.350;2022-08-11T13:40:41;3.60;;;1.20;;
51082;SDS011;37131;42.694;23.350;2022-08-11T13:43:07;2.53;;;1.45;;
51082;SDS011;37131;42.694;23.350;2022-08-11T13:45:34;4.85;;;1.98;;
51082;SDS011;37131;42.694;23.350;2022-08-11T13:48:00;5.43;;;1.92;;
51082;SDS011;37131;42.694;23.350;2022-08-11T13:50:30;3.22;;;1.65;;
51082;SDS011;37131;42.694;23.350;2022-08-11T13:53:17;5.82;;;1.70;;
51082;SDS011;37131;42.694;23.350;2022-08-11T13:55:46;3.38;;;1.58;;
51082;SDS011;37131;42.694;23.350;2022-08-11T13:58:13;2.25;;;1.35;;
51082;SDS011;37131;42.694;23.350;2022-08-11T14:00:39;1.65;;;0.90;;
51082;SDS011;37131;42.694;23.350;2022-08-11T14:03:09;2.40;;;1.30;;
51082;SDS011;37131;42.694;23.350;2022-08-11T14:05:41;2.65;;;1.60;;
51082;SDS011;37131;42.694;23.350;2022-08-11T14:08:14;2.38;;;1.33;;
51082;SDS011;37131;42.694;23.350;2022-08-11T14:10:42;3.10;;;1.20;;
51082;SDS011;37131;42.694;23.350;2022-08-11T14:13:12;2.97;;;1.60;;
51082;SDS011;37131;42.694;23.350;2022-08-11T14:16:00;5.95;;;1.35;;
51082;SDS011;37131;42.694;23.350;2022-08-11T14:18:28;2.45;;;1.55;;
51082;SDS011;37131;42.694;23.350;2022-08-11T14:20:56;2.30;;;1.60;;
51082;SDS011;37131;42.694;23.350;2022-08-11T14:23:50;2.72;;;1.40;;
51082;SDS011;37131;42.694;23.350;2022-08-11T14:26:23;2.45;;;1.27;;
51082;SDS011;37131;42.694;23.350;2022-08-11T14:29:06;2.70;;;1.70;;
51082;SDS011;37131;42.694;23.350;2022-08-11T14:31:33;4.53;;;1.35;;
51082;SDS011;37131;42.694;23.350;2022-08-11T14:34:03;4.15;;;1.80;;
51082;SDS011;37131;42.694;23.350;2022-08-11T14:36:35;6.20;;;2.13;;
51082;SDS011;37131;42.694;23.350;2022-08-11T14:39:05;2.97;;;1.67;;
51082;SDS011;37131;42.694;23.350;2022-08-11T14:41:36;2.53;;;1.60;;
51082;SDS011;37131;42.694;23.350;2022-08-11T14:44:25;3.33;;;1.58;;
51082;SDS011;37131;42.694;23.350;2022-08-11T14:47:10;4.68;;;1.48;;
51082;SDS011;37131;42.694;23.350;2022-08-11T14:49:39;3.53;;;1.98;;
51082;SDS011;37131;42.694;23.350;2022-08-11T14:52:07;4.32;;;1.92;;
51082;SDS011;37131;42.694;23.350;2022-08-11T14:54:45;3.25;;;1.60;;
51082;SDS011;37131;42.694;23.350;2022-08-11T14:57:32;2.33;;;1.50;;
51082;SDS011;37131;42.694;23.350;2022-08-11T15:00:03;2.80;;;1.77;;
51082;SDS011;37131;42.694;23.350;2022-08-11T15:02:30;3.17;;;1.88;;
51082;SDS011;37131;42.694;23.350;2022-08-11T15:05:18;6.13;;;1.90;;
51082;SDS011;37131;42.694;23.350;2022-08-11T15:07:45;2.45;;;1.55;;
51082;SDS011;37131;42.694;23.350;2022-08-11T15:10:11;3.15;;;1.88;;
51082;SDS011;37131;42.694;23.350;2022-08-11T15:12:38;6.97;;;2.58;;
51082;SDS011;37131;42.694;23.350;2022-08-11T15:15:07;3.70;;;1.88;;
51082;SDS011;37131;42.694;23.350;2022-08-11T15:17:58;3.92;;;1.50;;
51082;SDS011;37131;42.694;23.350;2022-08-11T15:20:27;3.67;;;1.70;;
51082;SDS011;37131;42.694;23.350;2022-08-11T15:23:12;4.57;;;1.50;;
51082;SDS011;37131;42.694;23.350;2022-08-11T15:26:08;10.75;;;2.30;;
51082;SDS011;37131;42.694;23.350;2022-08-11T15:28:38;5.43;;;2.00;;
51082;SDS011;37131;42.694;23.350;2022-08-11T15:31:26;3.45;;;1.50;;
51082;SDS011;37131;42.694;23.350;2022-08-11T15:34:13;4.05;;;1.48;;
51082;SDS011;37131;42.694;23.350;2022-08-11T15:37:02;4.25;;;1.33;;
51082;SDS011;37131;42.694;23.350;2022-08-11T15:43:21;3.42;;;1.50;;
51082;SDS011;37131;42.694;23.350;2022-08-11T15:46:13;4.30;;;2.05;;
51082;SDS011;37131;42.694;23.350;2022-08-11T15:48:45;2.67;;;1.25;;
51082;SDS011;37131;42.694;23.350;2022-08-11T15:51:15;4.82;;;1.73;;
51082;SDS011;37131;42.694;23.350;2022-08-11T15:54:03;8.38;;;2.13;;
51082;SDS011;37131;42.694;23.350;2022-08-11T15:56:33;2.80;;;1.55;;
51082;SDS011;37131;42.694;23.350;2022-08-11T15:59:02;4.88;;;2.03;;
51082;SDS011;37131;42.694;23.350;2022-08-11T16:01:48;5.47;;;1.63;;
51082;SDS011;37131;42.694;23.350;2022-08-11T16:04:36;3.13;;;1.40;;
51082;SDS011;37131;42.694;23.350;2022-08-11T16:07:04;2.65;;;1.40;;
51082;SDS011;37131;42.694;23.350;2022-08-11T16:09:44;3.90;;;1.75;;
51082;SDS011;37131;42.694;23.350;2022-08-11T16:12:36;2.78;;;1.55;;
51082;SDS011;37131;42.694;23.350;2022-08-11T16:15:02;3.95;;;1.73;;
51082;SDS011;37131;42.694;23.350;2022-08-11T16:17:50;8.68;;;2.08;;
51082;SDS011;37131;42.694;23.350;2022-08-11T16:20:21;4.28;;;1.73;;
51082;SDS011;37131;42.694;23.350;2022-08-11T16:22:49;4.88;;;1.38;;
51082;SDS011;37131;42.694;23.350;2022-08-11T16:25:19;4.38;;;1.55;;
51082;SDS011;37131;42.694;23.350;2022-08-11T16:27:51;4.90;;;1.60;;
51082;SDS011;37131;42.694;23.350;2022-08-11T16:30:22;3.35;;;1.73;;
51082;SDS011;37131;42.694;23.350;2022-08-11T16:32:48;3.58;;;1.80;;
51082;SDS011;37131;42.694;23.350;2022-08-11T16:35:17;3.85;;;1.70;;
51082;SDS011;37131;42.694;23.350;2022-08-11T16:38:04;7.28;;;1.80;;
51082;SDS011;37131;42.694;23.350;2022-08-11T16:40:50;4.18;;;1.63;;
51082;SDS011;37131;42.694;23.350;2022-08-11T16:43:18;4.43;;;1.58;;
51082;SDS011;37131;42.694;23.350;2022-08-11T16:46:06;5.68;;;1.48;;
51082;SDS011;37131;42.694;23.350;2022-08-11T16:48:50;3.70;;;1.40;;
51082;SDS011;37131;42.694;23.350;2022-08-11T16:51:17;2.38;;;1.50;;
51082;SDS011;37131;42.694;23.350;2022-08-11T16:53:44;2.13;;;1.50;;
51082;SDS011;37131;42.694;23.350;2022-08-11T16:56:11;2.70;;;1.48;;
51082;SDS011;37131;42.694;23.350;2022-08-11T16:58:42;3.97;;;2.10;;
51082;SDS011;37131;42.694;23.350;2022-08-11T17:01:32;3.20;;;1.60;;
51082;SDS011;37131;42.694;23.350;2022-08-11T17:04:02;4.35;;;1.98;;
51082;SDS011;37131;42.694;23.350;2022-08-11T17:06:51;5.03;;;1.95;;
51082;SDS011;37131;42.694;23.350;2022-08-11T17:09:36;4.88;;;1.63;;
51082;SDS011;37131;42.694;23.350;2022-08-11T17:12:23;2.60;;;1.40;;
51082;SDS011;37131;42.694;23.350;2022-08-11T17:15:14;3.38;;;1.67;;
51082;SDS011;37131;42.694;23.350;2022-08-11T17:18:00;5.82;;;1.70;;
51082;SDS011;37131;42.694;23.350;2022-08-11T17:20:28;2.88;;;1.55;;
51082;SDS011;37131;42.694;23.350;2022-08-11T17:22:55;6.38;;;1.60;;
51082;SDS011;37131;42.694;23.350;2022-08-11T17:25:40;5.20;;;1.75;;
51082;SDS011;37131;42.694;23.350;2022-08-11T17:28:07;2.03;;;1.40;;
51082;SDS011;37131;42.694;23.350;2022-08-11T17:30:34;4.38;;;1.88;;
51082;SDS011;37131;42.694;23.350;2022-08-11T17:33:18;4.88;;;2.00;;
51082;SDS011;37131;42.694;23.350;2022-08-11T17:36:04;3.67;;;1.50;;
51082;SDS011;37131;42.694;23.350;2022-08-11T17:38:31;3.45;;;1.42;;
51082;SDS011;37131;42.694;23.350;2022-08-11T17:40:59;3.45;;;1.55;;
51082;SDS011;37131;42.694;23.350;2022-08-11T17:43:45;2.80;;;1.60;;
51082;SDS011;37131;42.694;23.350;2022-08-11T17:46:31;3.60;;;1.85;;
51082;SDS011;37131;42.694;23.350;2022-08-11T17:49:16;3.63;;;1.52;;
51082;SDS011;37131;42.694;23.350;2022-08-11T17:51:46;3.40;;;1.67;;
51082;SDS011;37131;42.694;23.350;2022-08-11T17:54:32;3.05;;;1.73;;
51082;SDS011;37131;42.694;23.350;2022-08-11T17:57:19;2.67;;;1.45;;
51082;SDS011;37131;42.694;23.350;2022-08-11T18:00:04;4.05;;;1.95;;
51082;SDS011;37131;42.694;23.350;2022-08-11T18:02:35;4.13;;;1.80;;
51082;SDS011;37131;42.694;23.350;2022-08-11T18:05:41;3.08;;;1.73;;
51082;SDS011;37131;42.694;23.350;2022-08-11T18:08:08;4.68;;;1.77;;
51082;SDS011;37131;42.694;23.350;2022-08-11T18:10:54;3.97;;;1.80;;
51082;SDS011;37131;42.694;23.350;2022-08-11T18:13:39;4.03;;;1.80;;
51082;SDS011;37131;42.694;23.350;2022-08-11T18:16:25;2.45;;;1.40;;
51082;SDS011;37131;42.694;23.350;2022-08-11T18:19:10;3.03;;;1.50;;
51082;SDS011;37131;42.694;23.350;2022-08-11T18:21:59;2.70;;;1.30;;
51082;SDS011;37131;42.694;23.350;2022-08-11T18:24:49;3.75;;;1.60;;
51082;SDS011;37131;42.694;23.350;2022-08-11T18:27:37;2.78;;;1.60;;
51082;SDS011;37131;42.694;23.350;2022-08-11T18:30:23;2.15;;;1.35;;
51082;SDS011;37131;42.694;23.350;2022-08-11T18:33:08;2.45;;;1.30;;
51082;SDS011;37131;42.694;23.350;2022-08-11T18:35:53;2.88;;;1.35;;
51082;SDS011;37131;42.694;23.350;2022-08-11T18:38:41;4.60;;;1.73;;
51082;SDS011;37131;42.694;23.350;2022-08-11T18:41:30;2.63;;;1.33;;
51082;SDS011;37131;42.694;23.350;2022-08-11T18:44:17;2.70;;;1.50;;
51082;SDS011;37131;42.694;23.350;2022-08-11T18:47:07;4.13;;;1.75;;
51082;SDS011;37131;42.694;23.350;2022-08-11T18:49:55;2.63;;;1.40;;
51082;SDS011;37131;42.694;23.350;2022-08-11T18:52:42;3.10;;;1.48;;
51082;SDS011;37131;42.694;23.350;2022-08-11T18:55:28;3.92;;;1.90;;
51082;SDS011;37131;42.694;23.350;2022-08-11T18:58:14;11.07;;;3.97;;
51082;SDS011;37131;42.694;23.350;2022-08-11T19:01:04;7.70;;;4.53;;
51082;SDS011;37131;42.694;23.350;2022-08-11T19:03:51;7.70;;;4.03;;
51082;SDS011;37131;42.694;23.350;2022-08-11T19:06:39;6.55;;;3.92;;
51082;SDS011;37131;42.694;23.350;2022-08-11T19:09:25;6.78;;;3.38;;
51082;SDS011;37131;42.694;23.350;2022-08-11T19:12:12;6.38;;;2.90;;
51082;SDS011;37131;42.694;23.350;2022-08-11T19:14:57;6.45;;;2.92;;
51082;SDS011;37131;42.694;23.350;2022-08-11T19:17:43;3.40;;;2.38;;
51082;SDS011;37131;42.694;23.350;2022-08-11T19:20:30;5.18;;;2.47;;
51082;SDS011;37131;42.694;23.350;2022-08-11T19:23:18;6.50;;;2.75;;
51082;SDS011;37131;42.694;23.350;2022-08-11T19:26:07;5.88;;;2.63;;
51082;SDS011;37131;42.694;23.350;2022-08-11T19:28:52;4.72;;;2.17;;
51082;SDS011;37131;42.694;23.350;2022-08-11T19:31:38;4.60;;;1.80;;
51082;SDS011;37131;42.694;23.350;2022-08-11T19:34:23;3.25;;;1.88;;
51082;SDS011;37131;42.694;23.350;2022-08-11T19:37:09;5.50;;;2.13;;